Hanzhong, China
Current Conditions -  °F | °C
As of 4:00 PM on Wednesday 22 Oct 2014 (Local Time) from ZLXY Reporting Station
Haze Haze  
Wind Chill: 16°   Ceiling: Unl
Heat Index: 16°   Visibility: 1mi
Dew Point: 12°   Wind: 11mph
Humidity: 77%   Direction: 230°SW
Pressure: 30.15"   Gusts: NA
Location:  33.13°N, 107.03°E
Report Text: ZLXY 220800Z 23005MPS 1600 BR FEW060 16/12 Q1021 BECMGTL09501400 -RA BR
Loading
Personal Weather Stations






























Interactive Weather Map
Tropical Storm Tracking
New forecast layout! Learn more

10-Day Weather Forecast

Advertisements
Track Severe Weather on mobile